Impacts TAF Board
For situational awareness. Not to be used for flight planning purposes.
IDs:

KJFK - New York/Kennedy Int, NY, US

Issued at 1541 UTC 01 Mar 2021
Updated at 1659 UTC 01 Mar 2021
Potential Impact None Slight Moderate High
Time1651Z 01/17Z 01/18Z 01/19Z 01/20Z 01/21Z 01/22Z 01/23Z 02/00Z 02/01Z 02/02Z 02/03Z 02/04Z 02/05Z>>
Type OBS PRVL PRVL
  [TEMP]  
PRVL
  [TEMP]  
PRVL
  [TEMP]  
PRVL PRVL PRVL PRVL PRVL PRVL PRVL PRVL PRVL
VIS 8 3 5
  [6.21]  
5
  [6.21]  
5
  [6.21]  
>6 >6 >6 >6 >6 >6 >6 >6 >6
CIG 38 7 20
  [40]  
20
  [40]  
20
  [40]  
-- -- -- -- -- -- -- -- --
Cover OVC OVC OVC
  [BKN]  
OVC
  [BKN]  
OVC
  [BKN]  
SCT SCT SCT SCT SCT SCT SCT SCT SCT
FltCat VFR IFR MVFR
  [VFR]  
MVFR
  [VFR]  
MVFR
  [VFR]  
VFR VFR VFR VFR VFR VFR VFR VFR VFR
WX -RA BR BR
  [NSW]  
BR
  [NSW]  
BR
  [NSW]  
-- -- -- -- -- -- -- -- --
WDir 260 240 260
[260]
260
[260]
260
[260]
300 300 300 300 300 300 300 300 300
WSpd 13 9 12
  [12]  
12
  [12]  
12
  [12]  
20 20 20 20 27 27 27 27 27
WGst -- -- --
  [--]  
--
  [--]  
--
  [--]  
32 32 32 32 44 44 44 44 44
Raw TAF
KJFK 011541Z 0116/0218 24009KT 3SM BR BKN007 OVC018
  FM011800 26012KT 5SM BR SCT010 BKN020 OVC035
  TEMPO 0118/0121 P6SM NSW SCT020 BKN040
  FM012100 30020G32KT P6SM SCT050
  FM020100 30027G44KT P6SM SCT050
  FM020600 30025G40KT P6SM SCT050
  FM021200 31020G32KT P6SM FEW050


Raw METAR
KJFK 011651Z 26013KT 8SM -RA FEW011 BKN038 OVC065 07/05 A2964 RMK AO2 RAB48 SLP037 P0000 T00720050
KJFK 011633Z 27011KT 10SM FEW010 BKN032 OVC075 07/05 A2963 RMK AO2 T00720050
KJFK 011551Z 27015G18KT 7SM SCT006 BKN013 OVC060 07/06 A2964 RMK AO2 SLP036 T00720056
KJFK 011451Z 24009KT 1SM R04R/P6000FT BR BKN007 OVC110 06/04 A2962 RMK AO2 SFC VIS 3 SLP029 60001 T00560044 56032
KJFK 011351Z 22007KT 1/4SM R04R/P6000FT BR BKN004 BKN055 OVC100 06/04 A2964 RMK AO2 SFC VIS 3 RAE09 SLP037 BKN004 V SCT P0000 T00560044
KJFK 011337Z 19007KT 2SM BR BKN005 BKN055 OVC095 06/04 A2964 RMK AO2 SFC VIS 3 RAE09 P0000 T00560044

METAR Board
Radar Display
Forecast Discussion
For situational awareness. Not to be used for flight planning purposes.